sensor_id;sensor_type;location;lat;lon;timestamp;pressure;altitude;pressure_sealevel;temperature;humidity
73633;BME280;61927;50.080;14.418;2023-05-24T00:02:09;99597.91;;;13.28;61.75
73633;BME280;61927;50.080;14.418;2023-05-24T00:04:38;99593.00;;;13.35;61.31
73633;BME280;61927;50.080;14.418;2023-05-24T00:07:04;99595.88;;;13.32;61.50
73633;BME280;61927;50.080;14.418;2023-05-24T00:09:31;99598.13;;;13.25;61.58
73633;BME280;61927;50.080;14.418;2023-05-24T00:11:57;99590.75;;;13.16;61.56
73633;BME280;61927;50.080;14.418;2023-05-24T00:14:24;99594.19;;;13.18;61.69
73633;BME280;61927;50.080;14.418;2023-05-24T00:16:50;99600.38;;;13.18;61.59
73633;BME280;61927;50.080;14.418;2023-05-24T00:19:15;99599.81;;;13.01;62.28
73633;BME280;61927;50.080;14.418;2023-05-24T00:21:47;99594.91;;;12.94;62.07
73633;BME280;61927;50.080;14.418;2023-05-24T00:24:13;99601.63;;;12.87;62.59
73633;BME280;61927;50.080;14.418;2023-05-24T00:26:41;99602.16;;;12.92;62.77
73633;BME280;61927;50.080;14.418;2023-05-24T00:29:07;99594.28;;;13.04;62.44
73633;BME280;61927;50.080;14.418;2023-05-24T00:31:33;99592.56;;;13.03;62.29
73633;BME280;61927;50.080;14.418;2023-05-24T00:33:58;99597.69;;;12.93;62.37
73633;BME280;61927;50.080;14.418;2023-05-24T00:36:24;99596.63;;;12.83;63.14
73633;BME280;61927;50.080;14.418;2023-05-24T00:38:50;99595.56;;;12.85;62.68
73633;BME280;61927;50.080;14.418;2023-05-24T00:41:17;99596.31;;;12.87;62.41
73633;BME280;61927;50.080;14.418;2023-05-24T00:43:43;99597.47;;;12.83;62.53
73633;BME280;61927;50.080;14.418;2023-05-24T00:46:17;99597.03;;;12.89;62.33
73633;BME280;61927;50.080;14.418;2023-05-24T00:48:47;99597.38;;;12.85;62.59
73633;BME280;61927;50.080;14.418;2023-05-24T00:51:13;99604.38;;;12.73;62.92
73633;BME280;61927;50.080;14.418;2023-05-24T00:53:41;99598.00;;;12.76;63.44
73633;BME280;61927;50.080;14.418;2023-05-24T00:56:08;99596.81;;;12.80;63.35
73633;BME280;61927;50.080;14.418;2023-05-24T00:58:35;99603.13;;;12.91;62.91
73633;BME280;61927;50.080;14.418;2023-05-24T01:01:02;99596.31;;;13.00;63.06
73633;BME280;61927;50.080;14.418;2023-05-24T01:03:28;99607.69;;;13.02;63.15
73633;BME280;61927;50.080;14.418;2023-05-24T01:05:58;99609.81;;;12.84;63.94
73633;BME280;61927;50.080;14.418;2023-05-24T01:08:45;99605.34;;;12.72;64.64
73633;BME280;61927;50.080;14.418;2023-05-24T01:11:24;99604.78;;;12.67;64.70
73633;BME280;61927;50.080;14.418;2023-05-24T01:14:21;99600.63;;;12.63;65.26
73633;BME280;61927;50.080;14.418;2023-05-24T01:16:54;99605.97;;;12.76;65.12
73633;BME280;61927;50.080;14.418;2023-05-24T01:22:17;99609.94;;;12.96;64.19
73633;BME280;61927;50.080;14.418;2023-05-24T01:25:02;99614.41;;;12.95;64.31
73633;BME280;61927;50.080;14.418;2023-05-24T01:27:30;99611.84;;;12.81;64.38
73633;BME280;61927;50.080;14.418;2023-05-24T01:29:58;99613.88;;;12.77;64.55
73633;BME280;61927;50.080;14.418;2023-05-24T01:32:24;99614.41;;;12.82;64.39
73633;BME280;61927;50.080;14.418;2023-05-24T01:34:50;99618.34;;;12.89;63.79
73633;BME280;61927;50.080;14.418;2023-05-24T01:37:15;99621.75;;;12.91;63.15
73633;BME280;61927;50.080;14.418;2023-05-24T01:39:41;99617.28;;;12.79;63.50
73633;BME280;61927;50.080;14.418;2023-05-24T01:45:05;99617.47;;;12.76;63.55
73633;BME280;61927;50.080;14.418;2023-05-24T01:51:05;99622.75;;;12.51;63.20
73633;BME280;61927;50.080;14.418;2023-05-24T01:53:33;99624.00;;;12.33;63.77
73633;BME280;61927;50.080;14.418;2023-05-24T01:56:01;99627.56;;;12.19;63.67
73633;BME280;61927;50.080;14.418;2023-05-24T01:58:28;99621.59;;;12.15;63.91
73633;BME280;61927;50.080;14.418;2023-05-24T02:00:54;99630.31;;;12.17;63.90
73633;BME280;61927;50.080;14.418;2023-05-24T02:03:20;99628.00;;;12.25;63.91
73633;BME280;61927;50.080;14.418;2023-05-24T02:05:46;99623.22;;;12.31;63.28
73633;BME280;61927;50.080;14.418;2023-05-24T02:08:12;99624.69;;;12.22;63.67
73633;BME280;61927;50.080;14.418;2023-05-24T02:10:38;99622.19;;;12.06;63.94
73633;BME280;61927;50.080;14.418;2023-05-24T02:13:05;99625.78;;;12.05;64.08
73633;BME280;61927;50.080;14.418;2023-05-24T02:15:32;99617.72;;;12.07;63.61
73633;BME280;61927;50.080;14.418;2023-05-24T02:17:58;99622.47;;;12.02;63.85
73633;BME280;61927;50.080;14.418;2023-05-24T02:20:26;99618.13;;;12.01;63.93
73633;BME280;61927;50.080;14.418;2023-05-24T02:22:53;99620.84;;;12.13;63.50
73633;BME280;61927;50.080;14.418;2023-05-24T02:25:18;99620.06;;;12.11;63.70
73633;BME280;61927;50.080;14.418;2023-05-24T02:27:44;99619.97;;;12.13;63.59
73633;BME280;61927;50.080;14.418;2023-05-24T02:30:11;99618.94;;;12.15;63.49
73633;BME280;61927;50.080;14.418;2023-05-24T02:32:38;99615.41;;;12.15;63.56
73633;BME280;61927;50.080;14.418;2023-05-24T02:35:04;99623.09;;;12.19;63.40
73633;BME280;61927;50.080;14.418;2023-05-24T02:37:30;99620.78;;;12.27;63.08
73633;BME280;61927;50.080;14.418;2023-05-24T02:39:55;99618.31;;;12.24;62.98
73633;BME280;61927;50.080;14.418;2023-05-24T02:42:21;99621.72;;;12.26;63.27
73633;BME280;61927;50.080;14.418;2023-05-24T02:44:46;99619.22;;;12.38;62.88
73633;BME280;61927;50.080;14.418;2023-05-24T02:47:14;99625.72;;;12.46;62.28
73633;BME280;61927;50.080;14.418;2023-05-24T02:49:40;99622.31;;;12.44;62.15
73633;BME280;61927;50.080;14.418;2023-05-24T02:52:06;99622.88;;;12.49;61.91
73633;BME280;61927;50.080;14.418;2023-05-24T02:54:31;99621.91;;;12.50;61.78
73633;BME280;61927;50.080;14.418;2023-05-24T02:56:57;99625.63;;;12.48;61.92
73633;BME280;61927;50.080;14.418;2023-05-24T02:59:23;99624.13;;;12.44;62.04
73633;BME280;61927;50.080;14.418;2023-05-24T03:01:49;99622.72;;;12.38;62.16
73633;BME280;61927;50.080;14.418;2023-05-24T03:04:15;99626.75;;;12.31;62.27
73633;BME280;61927;50.080;14.418;2023-05-24T03:06:41;99626.81;;;12.17;62.60
73633;BME280;61927;50.080;14.418;2023-05-24T03:09:06;99623.19;;;12.18;62.56
73633;BME280;61927;50.080;14.418;2023-05-24T03:11:32;99629.00;;;12.10;62.85
73633;BME280;61927;50.080;14.418;2023-05-24T03:13:58;99631.81;;;11.94;63.58
73633;BME280;61927;50.080;14.418;2023-05-24T03:16:23;99630.09;;;11.93;63.72
73633;BME280;61927;50.080;14.418;2023-05-24T03:18:49;99631.41;;;12.01;63.66
73633;BME280;61927;50.080;14.418;2023-05-24T03:21:16;99627.72;;;12.03;63.49
73633;BME280;61927;50.080;14.418;2023-05-24T03:23:42;99633.41;;;11.97;63.41
73633;BME280;61927;50.080;14.418;2023-05-24T03:26:08;99643.19;;;11.96;63.32
73633;BME280;61927;50.080;14.418;2023-05-24T03:28:33;99639.72;;;11.82;64.00
73633;BME280;61927;50.080;14.418;2023-05-24T03:31:00;99648.91;;;11.90;62.23
73633;BME280;61927;50.080;14.418;2023-05-24T03:33:25;99647.75;;;11.94;62.34
73633;BME280;61927;50.080;14.418;2023-05-24T03:35:51;99652.53;;;11.89;61.26
73633;BME280;61927;50.080;14.418;2023-05-24T03:38:16;99656.53;;;11.82;61.28
73633;BME280;61927;50.080;14.418;2023-05-24T03:40:42;99659.94;;;11.70;61.08
73633;BME280;61927;50.080;14.418;2023-05-24T03:43:08;99656.41;;;11.70;61.08
73633;BME280;61927;50.080;14.418;2023-05-24T03:45:33;99662.50;;;11.72;60.62
73633;BME280;61927;50.080;14.418;2023-05-24T03:47:59;99666.97;;;11.71;60.08
73633;BME280;61927;50.080;14.418;2023-05-24T03:50:24;99664.28;;;11.71;60.41
73633;BME280;61927;50.080;14.418;2023-05-24T03:52:50;99677.97;;;11.65;60.31
73633;BME280;61927;50.080;14.418;2023-05-24T03:55:16;99679.31;;;11.58;60.45
73633;BME280;61927;50.080;14.418;2023-05-24T03:57:42;99685.56;;;11.57;60.88
73633;BME280;61927;50.080;14.418;2023-05-24T04:00:08;99679.31;;;11.58;60.34
73633;BME280;61927;50.080;14.418;2023-05-24T04:02:35;99681.19;;;11.70;60.27
73633;BME280;61927;50.080;14.418;2023-05-24T04:05:04;99688.78;;;11.76;59.94
73633;BME280;61927;50.080;14.418;2023-05-24T04:07:35;99680.75;;;11.78;59.93
73633;BME280;61927;50.080;14.418;2023-05-24T04:10:06;99689.00;;;11.87;59.56
73633;BME280;61927;50.080;14.418;2023-05-24T04:12:33;99691.09;;;11.82;59.09
73633;BME280;61927;50.080;14.418;2023-05-24T04:14:59;99698.94;;;11.70;59.74
73633;BME280;61927;50.080;14.418;2023-05-24T04:17:28;99705.50;;;11.64;59.91
73633;BME280;61927;50.080;14.418;2023-05-24T04:19:55;99697.91;;;11.44;60.42
73633;BME280;61927;50.080;14.418;2023-05-24T04:22:20;99703.88;;;11.47;60.44
73633;BME280;61927;50.080;14.418;2023-05-24T04:24:46;99700.09;;;11.37;60.74
73633;BME280;61927;50.080;14.418;2023-05-24T04:27:12;99705.00;;;11.29;60.89
73633;BME280;61927;50.080;14.418;2023-05-24T04:29:38;99699.69;;;11.29;61.14
73633;BME280;61927;50.080;14.418;2023-05-24T04:32:05;99695.72;;;11.36;61.07
73633;BME280;61927;50.080;14.418;2023-05-24T04:34:32;99699.25;;;11.51;60.80
73633;BME280;61927;50.080;14.418;2023-05-24T04:37:00;99696.47;;;11.67;60.26
73633;BME280;61927;50.080;14.418;2023-05-24T04:39:28;99702.69;;;11.81;59.63
73633;BME280;61927;50.080;14.418;2023-05-24T04:41:55;99700.78;;;11.83;59.65
73633;BME280;61927;50.080;14.418;2023-05-24T04:44:22;99704.84;;;11.89;59.05
73633;BME280;61927;50.080;14.418;2023-05-24T04:46:49;99704.19;;;12.00;59.54
73633;BME280;61927;50.080;14.418;2023-05-24T04:49:15;99709.97;;;12.06;58.79
73633;BME280;61927;50.080;14.418;2023-05-24T04:51:40;99713.00;;;12.00;58.96
73633;BME280;61927;50.080;14.418;2023-05-24T04:54:06;99708.72;;;11.98;58.93
73633;BME280;61927;50.080;14.418;2023-05-24T04:56:36;99712.16;;;12.00;59.16
73633;BME280;61927;50.080;14.418;2023-05-24T04:59:06;99706.94;;;11.98;58.83
73633;BME280;61927;50.080;14.418;2023-05-24T05:01:32;99707.41;;;11.90;59.25
73633;BME280;61927;50.080;14.418;2023-05-24T05:03:58;99710.66;;;11.81;59.24
73633;BME280;61927;50.080;14.418;2023-05-24T05:06:25;99707.03;;;11.82;59.20
73633;BME280;61927;50.080;14.418;2023-05-24T05:08:51;99714.16;;;11.82;59.09
73633;BME280;61927;50.080;14.418;2023-05-24T05:11:17;99716.41;;;11.74;59.01
73633;BME280;61927;50.080;14.418;2023-05-24T05:13:45;99718.69;;;11.51;59.92
73633;BME280;61927;50.080;14.418;2023-05-24T05:16:12;99719.06;;;11.59;59.83
73633;BME280;61927;50.080;14.418;2023-05-24T05:18:38;99715.09;;;11.67;59.55
73633;BME280;61927;50.080;14.418;2023-05-24T05:21:03;99723.66;;;11.86;58.98
73633;BME280;61927;50.080;14.418;2023-05-24T05:23:29;99713.97;;;11.99;58.52
73633;BME280;61927;50.080;14.418;2023-05-24T05:25:55;99721.44;;;12.07;58.24
73633;BME280;61927;50.080;14.418;2023-05-24T05:28:21;99717.94;;;12.06;58.45
73633;BME280;61927;50.080;14.418;2023-05-24T05:30:47;99716.97;;;12.07;58.25
73633;BME280;61927;50.080;14.418;2023-05-24T05:33:12;99722.66;;;12.15;58.24
73633;BME280;61927;50.080;14.418;2023-05-24T05:35:38;99730.06;;;12.24;57.44
73633;BME280;61927;50.080;14.418;2023-05-24T05:38:04;99721.53;;;12.19;57.08
73633;BME280;61927;50.080;14.418;2023-05-24T05:40:30;99733.72;;;11.95;57.79
73633;BME280;61927;50.080;14.418;2023-05-24T05:42:55;99730.41;;;11.77;58.49
73633;BME280;61927;50.080;14.418;2023-05-24T05:45:21;99740.16;;;11.77;58.39
73633;BME280;61927;50.080;14.418;2023-05-24T05:47:47;99737.03;;;11.70;58.29
73633;BME280;61927;50.080;14.418;2023-05-24T05:50:12;99738.44;;;11.76;58.35
73633;BME280;61927;50.080;14.418;2023-05-24T05:52:38;99744.13;;;11.70;57.99
73633;BME280;61927;50.080;14.418;2023-05-24T05:55:04;99744.63;;;11.62;58.42
73633;BME280;61927;50.080;14.418;2023-05-24T05:57:30;99748.13;;;11.62;57.98
73633;BME280;61927;50.080;14.418;2023-05-24T05:59:55;99744.53;;;11.63;57.84
73633;BME280;61927;50.080;14.418;2023-05-24T06:02:21;99749.84;;;11.63;57.67
73633;BME280;61927;50.080;14.418;2023-05-24T06:04:48;99750.03;;;11.60;57.69
73633;BME280;61927;50.080;14.418;2023-05-24T06:07:14;99753.53;;;11.61;57.12
73633;BME280;61927;50.080;14.418;2023-05-24T06:09:40;99742.78;;;11.48;57.58
73633;BME280;61927;50.080;14.418;2023-05-24T06:12:06;99751.06;;;11.44;58.06
73633;BME280;61927;50.080;14.418;2023-05-24T06:14:32;99749.84;;;11.63;57.56
73633;BME280;61927;50.080;14.418;2023-05-24T06:16:58;99758.28;;;11.70;57.13
73633;BME280;61927;50.080;14.418;2023-05-24T06:19:24;99760.47;;;11.63;57.63
73633;BME280;61927;50.080;14.418;2023-05-24T06:21:51;99770.72;;;11.55;58.18
73633;BME280;61927;50.080;14.418;2023-05-24T06:24:17;99762.91;;;11.52;58.28
73633;BME280;61927;50.080;14.418;2023-05-24T06:26:51;99778.84;;;11.38;58.63
73633;BME280;61927;50.080;14.418;2023-05-24T06:29:17;99782.25;;;11.40;58.31
73633;BME280;61927;50.080;14.418;2023-05-24T06:31:47;99778.75;;;11.40;57.82
73633;BME280;61927;50.080;14.418;2023-05-24T06:34:13;99781.41;;;11.40;57.92
73633;BME280;61927;50.080;14.418;2023-05-24T06:36:43;99787.56;;;11.40;57.37
73633;BME280;61927;50.080;14.418;2023-05-24T06:39:14;99782.19;;;11.42;57.84
73633;BME280;61927;50.080;14.418;2023-05-24T06:41:42;99780.31;;;11.58;57.28
73633;BME280;61927;50.080;14.418;2023-05-24T06:44:08;99780.47;;;11.55;57.82
73633;BME280;61927;50.080;14.418;2023-05-24T06:46:34;99781.13;;;11.44;57.86
73633;BME280;61927;50.080;14.418;2023-05-24T06:49:00;99777.63;;;11.44;57.94
73633;BME280;61927;50.080;14.418;2023-05-24T06:51:26;99787.69;;;11.53;58.08
73633;BME280;61927;50.080;14.418;2023-05-24T06:53:52;99794.72;;;11.54;58.09
73633;BME280;61927;50.080;14.418;2023-05-24T06:56:18;99787.81;;;11.65;57.87
73633;BME280;61927;50.080;14.418;2023-05-24T06:58:43;99791.47;;;11.79;57.58
73633;BME280;61927;50.080;14.418;2023-05-24T07:01:10;99794.47;;;11.73;56.08
73633;BME280;61927;50.080;14.418;2023-05-24T07:03:36;99799.53;;;11.77;55.86
73633;BME280;61927;50.080;14.418;2023-05-24T07:06:02;99798.66;;;11.77;55.52
73633;BME280;61927;50.080;14.418;2023-05-24T07:08:28;99798.41;;;11.95;55.15
73633;BME280;61927;50.080;14.418;2023-05-24T07:10:54;99797.16;;;12.15;54.68
73633;BME280;61927;50.080;14.418;2023-05-24T07:13:20;99801.53;;;12.16;53.83
73633;BME280;61927;50.080;14.418;2023-05-24T07:15:46;99804.94;;;12.04;54.55
73633;BME280;61927;50.080;14.418;2023-05-24T07:18:12;99801.44;;;12.04;54.40
73633;BME280;61927;50.080;14.418;2023-05-24T07:20:38;99802.56;;;11.85;54.61
73633;BME280;61927;50.080;14.418;2023-05-24T07:23:04;99802.81;;;11.67;55.20
73633;BME280;61927;50.080;14.418;2023-05-24T07:25:31;99806.47;;;11.94;54.58
73633;BME280;61927;50.080;14.418;2023-05-24T07:27:58;99803.91;;;11.92;54.25
73633;BME280;61927;50.080;14.418;2023-05-24T07:30:24;99803.56;;;11.69;55.19
73633;BME280;61927;50.080;14.418;2023-05-24T07:32:50;99808.66;;;11.87;54.78
73633;BME280;61927;50.080;14.418;2023-05-24T07:35:16;99811.59;;;11.97;54.76
73633;BME280;61927;50.080;14.418;2023-05-24T07:37:41;99815.41;;;11.93;55.08
73633;BME280;61927;50.080;14.418;2023-05-24T07:40:09;99805.81;;;12.05;54.51
73633;BME280;61927;50.080;14.418;2023-05-24T07:42:40;99810.72;;;12.25;53.99
73633;BME280;61927;50.080;14.418;2023-05-24T07:45:07;99812.34;;;12.42;53.56
73633;BME280;61927;50.080;14.418;2023-05-24T07:47:35;99808.75;;;12.70;52.85
73633;BME280;61927;50.080;14.418;2023-05-24T07:50:02;99805.13;;;12.98;51.74
73633;BME280;61927;50.080;14.418;2023-05-24T07:52:28;99805.53;;;12.91;51.82
73633;BME280;61927;50.080;14.418;2023-05-24T07:54:54;99801.63;;;12.70;52.11
73633;BME280;61927;50.080;14.418;2023-05-24T07:57:20;99797.84;;;12.60;52.97
73633;BME280;61927;50.080;14.418;2023-05-24T07:59:46;99792.88;;;12.68;52.20
73633;BME280;61927;50.080;14.418;2023-05-24T08:02:11;99798.75;;;12.73;52.13
73633;BME280;61927;50.080;14.418;2023-05-24T08:04:38;99793.78;;;12.54;52.22
73633;BME280;61927;50.080;14.418;2023-05-24T08:07:04;99800.09;;;12.66;52.19
73633;BME280;61927;50.080;14.418;2023-05-24T08:09:31;99801.81;;;12.67;52.43
73633;BME280;61927;50.080;14.418;2023-05-24T08:12:03;99793.13;;;12.51;52.67
73633;BME280;61927;50.080;14.418;2023-05-24T08:14:31;99802.06;;;12.50;52.64
73633;BME280;61927;50.080;14.418;2023-05-24T08:16:57;99799.38;;;12.50;52.08
73633;BME280;61927;50.080;14.418;2023-05-24T08:19:26;99804.34;;;12.42;52.36
73633;BME280;61927;50.080;14.418;2023-05-24T08:21:54;99799.28;;;12.51;52.22
73633;BME280;61927;50.080;14.418;2023-05-24T08:24:21;99798.03;;;12.57;52.28
73633;BME280;61927;50.080;14.418;2023-05-24T08:26:47;99807.44;;;12.89;51.69
73633;BME280;61927;50.080;14.418;2023-05-24T08:29:12;99803.44;;;12.97;51.28
73633;BME280;61927;50.080;14.418;2023-05-24T08:31:38;99811.28;;;12.85;51.80
73633;BME280;61927;50.080;14.418;2023-05-24T08:34:04;99805.44;;;13.20;51.00
73633;BME280;61927;50.080;14.418;2023-05-24T08:36:29;99808.47;;;13.41;50.71
73633;BME280;61927;50.080;14.418;2023-05-24T08:38:55;99810.19;;;13.42;50.26
73633;BME280;61927;50.080;14.418;2023-05-24T08:41:23;99809.75;;;13.35;50.65
73633;BME280;61927;50.080;14.418;2023-05-24T08:43:50;99811.56;;;13.08;50.94
73633;BME280;61927;50.080;14.418;2023-05-24T08:46:17;99812.56;;;12.92;51.64
73633;BME280;61927;50.080;14.418;2023-05-24T08:48:45;99803.97;;;13.29;51.05
73633;BME280;61927;50.080;14.418;2023-05-24T08:51:13;99809.22;;;13.43;49.85
73633;BME280;61927;50.080;14.418;2023-05-24T08:53:40;99809.44;;;13.40;50.10
73633;BME280;61927;50.080;14.418;2023-05-24T08:56:06;99816.03;;;13.34;49.83
73633;BME280;61927;50.080;14.418;2023-05-24T08:58:37;99819.59;;;13.47;49.81
73633;BME280;61927;50.080;14.418;2023-05-24T09:01:03;99812.75;;;13.43;49.51
73633;BME280;61927;50.080;14.418;2023-05-24T09:03:31;99811.28;;;13.52;49.65
73633;BME280;61927;50.080;14.418;2023-05-24T09:05:58;99819.41;;;13.76;48.87
73633;BME280;61927;50.080;14.418;2023-05-24T09:08:25;99814.91;;;13.89;48.83
73633;BME280;61927;50.080;14.418;2023-05-24T09:10:54;99812.56;;;13.72;49.10
73633;BME280;61927;50.080;14.418;2023-05-24T09:13:22;99814.81;;;14.03;48.63
73633;BME280;61927;50.080;14.418;2023-05-24T09:15:49;99816.56;;;14.41;48.04
73633;BME280;61927;50.080;14.418;2023-05-24T09:18:15;99824.16;;;14.34;47.28
73633;BME280;61927;50.080;14.418;2023-05-24T09:20:40;99826.56;;;14.01;48.38
73633;BME280;61927;50.080;14.418;2023-05-24T09:23:07;99826.34;;;13.91;48.90
73633;BME280;61927;50.080;14.418;2023-05-24T09:25:33;99822.94;;;14.02;48.03
73633;BME280;61927;50.080;14.418;2023-05-24T09:28:04;99826.09;;;14.32;47.54
73633;BME280;61927;50.080;14.418;2023-05-24T09:30:30;99827.59;;;14.49;46.62
73633;BME280;61927;50.080;14.418;2023-05-24T09:32:58;99821.38;;;14.61;46.43
73633;BME280;61927;50.080;14.418;2023-05-24T09:35:25;99813.78;;;14.55;46.64
73633;BME280;61927;50.080;14.418;2023-05-24T09:37:55;99824.59;;;14.41;47.00
73633;BME280;61927;50.080;14.418;2023-05-24T09:40:22;99817.16;;;14.70;46.12
73633;BME280;61927;50.080;14.418;2023-05-24T09:42:49;99819.34;;;14.89;45.63
73633;BME280;61927;50.080;14.418;2023-05-24T09:45:26;99819.41;;;15.24;45.03
73633;BME280;61927;50.080;14.418;2023-05-24T09:47:53;99805.91;;;15.25;44.68
73633;BME280;61927;50.080;14.418;2023-05-24T09:50:18;99814.97;;;15.11;44.86
73633;BME280;61927;50.080;14.418;2023-05-24T09:52:44;99821.84;;;15.03;45.52
73633;BME280;61927;50.080;14.418;2023-05-24T09:55:17;99818.72;;;14.48;46.55
73633;BME280;61927;50.080;14.418;2023-05-24T09:57:44;99819.22;;;14.66;46.30
73633;BME280;61927;50.080;14.418;2023-05-24T10:00:10;99823.44;;;14.81;45.67
73633;BME280;61927;50.080;14.418;2023-05-24T10:02:42;99824.09;;;14.72;45.83
73633;BME280;61927;50.080;14.418;2023-05-24T10:05:12;99830.97;;;14.64;46.32
73633;BME280;61927;50.080;14.418;2023-05-24T10:07:40;99835.09;;;14.44;46.51
73633;BME280;61927;50.080;14.418;2023-05-24T10:10:07;99828.78;;;14.45;46.74
73633;BME280;61927;50.080;14.418;2023-05-24T10:12:34;99830.13;;;14.63;46.50
73633;BME280;61927;50.080;14.418;2023-05-24T10:15:08;99822.41;;;14.71;46.25
73633;BME280;61927;50.080;14.418;2023-05-24T10:17:35;99818.94;;;14.82;46.31
73633;BME280;61927;50.080;14.418;2023-05-24T10:20:00;99832.47;;;14.92;45.96
73633;BME280;61927;50.080;14.418;2023-05-24T10:22:26;99832.53;;;14.79;45.80
73633;BME280;61927;50.080;14.418;2023-05-24T10:24:52;99822.50;;;14.70;46.10
73633;BME280;61927;50.080;14.418;2023-05-24T10:27:26;99822.00;;;14.65;46.50
73633;BME280;61927;50.080;14.418;2023-05-24T10:30:23;99819.91;;;14.81;46.39
73633;BME280;61927;50.080;14.418;2023-05-24T10:32:52;99826.50;;;14.88;46.47
73633;BME280;61927;50.080;14.418;2023-05-24T10:35:21;99824.47;;;14.92;46.18
73633;BME280;61927;50.080;14.418;2023-05-24T10:37:48;99821.22;;;14.99;45.81
73633;BME280;61927;50.080;14.418;2023-05-24T10:40:18;99819.97;;;15.16;44.69
73633;BME280;61927;50.080;14.418;2023-05-24T10:42:47;99817.25;;;15.05;44.90
73633;BME280;61927;50.080;14.418;2023-05-24T10:45:36;99812.88;;;15.39;44.22
73633;BME280;61927;50.080;14.418;2023-05-24T10:50:42;99809.53;;;15.94;43.12
73633;BME280;61927;50.080;14.418;2023-05-24T10:53:19;99816.34;;;16.32;42.37
73633;BME280;61927;50.080;14.418;2023-05-24T10:55:59;99821.34;;;16.47;41.78
73633;BME280;61927;50.080;14.418;2023-05-24T10:58:57;99817.31;;;16.53;40.94
73633;BME280;61927;50.080;14.418;2023-05-24T11:01:27;99819.50;;;16.48;40.91
73633;BME280;61927;50.080;14.418;2023-05-24T11:04:09;99812.44;;;16.47;40.98
73633;BME280;61927;50.080;14.418;2023-05-24T11:09:14;99812.16;;;16.84;40.14
73633;BME280;61927;50.080;14.418;2023-05-24T11:11:43;99821.16;;;16.94;39.98
73633;BME280;61927;50.080;14.418;2023-05-24T11:14:11;99827.84;;;16.99;40.05
73633;BME280;61927;50.080;14.418;2023-05-24T11:16:38;99821.31;;;16.81;39.45
73633;BME280;61927;50.080;14.418;2023-05-24T11:19:17;99828.53;;;16.69;40.19
73633;BME280;61927;50.080;14.418;2023-05-24T11:21:44;99825.34;;;16.75;40.11
73633;BME280;61927;50.080;14.418;2023-05-24T11:24:11;99813.84;;;16.96;39.88
73633;BME280;61927;50.080;14.418;2023-05-24T11:26:37;99809.06;;;16.99;39.59
73633;BME280;61927;50.080;14.418;2023-05-24T11:29:03;99809.97;;;16.89;39.91
73633;BME280;61927;50.080;14.418;2023-05-24T11:31:30;99798.50;;;16.87;39.82
73633;BME280;61927;50.080;14.418;2023-05-24T11:33:56;99800.47;;;16.85;40.45
73633;BME280;61927;50.080;14.418;2023-05-24T11:36:22;99798.31;;;16.67;39.88
73633;BME280;61927;50.080;14.418;2023-05-24T11:38:48;99802.22;;;16.30;40.47
73633;BME280;61927;50.080;14.418;2023-05-24T11:41:14;99804.16;;;16.39;40.11
73633;BME280;61927;50.080;14.418;2023-05-24T11:43:41;99805.38;;;16.35;39.56
73633;BME280;61927;50.080;14.418;2023-05-24T11:46:06;99803.56;;;16.69;39.45
73633;BME280;61927;50.080;14.418;2023-05-24T11:48:32;99807.69;;;16.51;40.01
73633;BME280;61927;50.080;14.418;2023-05-24T11:50:59;99808.25;;;16.88;39.55
73633;BME280;61927;50.080;14.418;2023-05-24T11:53:25;99811.47;;;17.14;39.00
73633;BME280;61927;50.080;14.418;2023-05-24T11:55:53;99804.91;;;17.38;38.70
73633;BME280;61927;50.080;14.418;2023-05-24T11:58:25;99810.53;;;17.56;37.86
73633;BME280;61927;50.080;14.418;2023-05-24T12:00:54;99813.13;;;16.94;38.67
73633;BME280;61927;50.080;14.418;2023-05-24T12:03:19;99813.88;;;16.85;39.21
73633;BME280;61927;50.080;14.418;2023-05-24T12:05:45;99809.06;;;16.99;38.89
73633;BME280;61927;50.080;14.418;2023-05-24T12:08:12;99798.66;;;17.17;38.47
73633;BME280;61927;50.080;14.418;2023-05-24T12:10:41;99810.09;;;17.19;38.67
73633;BME280;61927;50.080;14.418;2023-05-24T12:13:19;99815.06;;;16.92;38.94
73633;BME280;61927;50.080;14.418;2023-05-24T12:15:49;99811.84;;;17.09;39.19
73633;BME280;61927;50.080;14.418;2023-05-24T12:18:23;99811.84;;;17.09;39.10
73633;BME280;61927;50.080;14.418;2023-05-24T12:20:51;99809.41;;;17.06;39.81
73633;BME280;61927;50.080;14.418;2023-05-24T12:23:22;99805.00;;;17.16;38.74
73633;BME280;61927;50.080;14.418;2023-05-24T12:25:49;99802.34;;;17.37;38.26
73633;BME280;61927;50.080;14.418;2023-05-24T12:28:19;99799.41;;;17.61;36.53
73633;BME280;61927;50.080;14.418;2023-05-24T12:30:49;99785.16;;;17.60;36.65
73633;BME280;61927;50.080;14.418;2023-05-24T12:33:20;99794.69;;;17.53;37.53
73633;BME280;61927;50.080;14.418;2023-05-24T12:35:47;99801.13;;;17.09;38.32
73633;BME280;61927;50.080;14.418;2023-05-24T12:38:13;99791.66;;;16.94;38.75
73633;BME280;61927;50.080;14.418;2023-05-24T12:40:42;99792.09;;;16.56;39.79
73633;BME280;61927;50.080;14.418;2023-05-24T12:43:09;99785.19;;;16.08;40.41
73633;BME280;61927;50.080;14.418;2023-05-24T12:45:34;99795.28;;;16.16;40.35
73633;BME280;61927;50.080;14.418;2023-05-24T12:48:01;99792.97;;;16.34;39.83
73633;BME280;61927;50.080;14.418;2023-05-24T12:50:29;99795.78;;;16.43;38.83
73633;BME280;61927;50.080;14.418;2023-05-24T12:52:56;99782.47;;;16.53;38.38
73633;BME280;61927;50.080;14.418;2023-05-24T12:55:24;99777.22;;;16.74;37.83
73633;BME280;61927;50.080;14.418;2023-05-24T12:57:54;99789.38;;;16.89;37.76
73633;BME280;61927;50.080;14.418;2023-05-24T13:00:25;99785.06;;;16.98;37.10
73633;BME280;61927;50.080;14.418;2023-05-24T13:02:55;99786.03;;;17.29;36.80
73633;BME280;61927;50.080;14.418;2023-05-24T13:05:26;99780.38;;;17.43;36.70
73633;BME280;61927;50.080;14.418;2023-05-24T13:07:54;99781.41;;;17.52;36.57